createdAt,value
2023-04-03T00:00:18.574Z,1.20
2023-04-03T00:01:18.590Z,1.30
2023-04-03T00:02:18.657Z,1.20
2023-04-03T00:03:18.608Z,1.10
2023-04-03T00:04:18.580Z,1.30
2023-04-03T00:05:18.555Z,1.10
2023-04-03T00:06:18.610Z,1.20
2023-04-03T00:07:18.559Z,1.00
2023-04-03T00:08:18.567Z,1.40
2023-04-03T00:09:18.500Z,1.40
2023-04-03T00:10:18.537Z,1.20
2023-04-03T00:11:18.493Z,1.20
2023-04-03T00:12:18.610Z,1.10
2023-04-03T00:13:18.487Z,1.20
2023-04-03T00:14:18.477Z,1.20
2023-04-03T00:15:18.464Z,1.50
2023-04-03T00:16:18.545Z,1.40
2023-04-03T00:17:18.486Z,1.30
2023-04-03T00:18:18.478Z,1.40
2023-04-03T00:19:18.463Z,1.20
2023-04-03T00:20:18.452Z,1.00
2023-04-03T00:21:18.447Z,1.10
2023-04-03T00:22:18.459Z,1.20
2023-04-03T00:23:18.397Z,1.20
2023-04-03T00:24:18.489Z,1.20
2023-04-03T00:25:18.386Z,1.20
2023-04-03T00:26:18.385Z,1.10
2023-04-03T00:27:18.377Z,1.30
2023-04-03T00:28:18.374Z,1.20
2023-04-03T00:29:18.377Z,1.60
2023-04-03T00:30:18.374Z,1.10
2023-04-03T00:31:18.392Z,1.40
2023-04-03T00:32:18.372Z,1.50
2023-04-03T00:33:18.373Z,1.40
2023-04-03T00:34:18.316Z,1.40
2023-04-03T00:35:18.329Z,1.30
2023-04-03T00:36:18.377Z,1.30
2023-04-03T00:37:18.340Z,1.30
2023-04-03T00:38:18.381Z,1.20
2023-04-03T00:39:18.301Z,1.30
2023-04-03T00:40:18.284Z,1.20
2023-04-03T00:41:18.274Z,1.30
2023-04-03T00:42:18.288Z,1.60
2023-04-03T00:43:18.261Z,1.50
2023-04-03T00:44:18.256Z,1.60
2023-04-03T00:45:18.263Z,1.50
2023-04-03T00:46:18.260Z,1.40
2023-04-03T00:47:18.264Z,1.50
2023-04-03T00:48:18.234Z,1.40
2023-04-03T00:49:18.217Z,1.30
2023-04-03T00:50:18.224Z,1.40
2023-04-03T00:51:18.211Z,1.30
2023-04-03T00:52:18.213Z,1.30
2023-04-03T00:53:18.204Z,1.30
2023-04-03T00:54:18.193Z,1.40
2023-04-03T00:55:18.194Z,1.10
2023-04-03T00:56:18.191Z,1.40
2023-04-03T00:57:18.252Z,1.30
2023-04-03T00:58:18.199Z,1.40
2023-04-03T00:59:18.205Z,1.30
2023-04-03T01:00:18.149Z,1.30
2023-04-03T01:01:18.157Z,1.10
2023-04-03T01:02:18.161Z,1.20
2023-04-03T01:03:18.137Z,1.00
2023-04-03T01:04:18.191Z,1.20
2023-04-03T01:05:18.138Z,1.30
2023-04-03T01:06:18.145Z,1.20
2023-04-03T01:07:18.151Z,1.30
2023-04-03T01:08:18.101Z,1.20
2023-04-03T01:09:18.092Z,1.30
2023-04-03T01:10:18.111Z,1.30
2023-04-03T01:11:18.090Z,0.90
2023-04-03T01:12:18.096Z,1.20
2023-04-03T01:13:18.067Z,1.30
2023-04-03T01:14:18.063Z,1.30
2023-04-03T01:15:18.084Z,1.30
2023-04-03T01:16:18.088Z,1.50
2023-04-03T01:17:19.085Z,1.20
2023-04-03T01:18:18.066Z,1.10
2023-04-03T01:19:18.050Z,1.30
2023-04-03T01:20:18.022Z,1.00
2023-04-03T01:21:18.018Z,1.20
2023-04-03T01:22:18.042Z,0.90
2023-04-03T01:23:18.007Z,1.20
2023-04-03T01:24:18.001Z,1.20
2023-04-03T01:25:18.039Z,1.20
2023-04-03T01:26:17.987Z,1.30
2023-04-03T01:27:18.008Z,1.20
2023-04-03T01:28:17.970Z,1.30
2023-04-03T01:29:18.000Z,1.30
2023-04-03T01:30:17.976Z,1.20
2023-04-03T01:31:17.974Z,1.30
2023-04-03T01:32:17.964Z,1.20
2023-04-03T01:33:17.936Z,1.30
2023-04-03T01:34:17.927Z,1.30
2023-04-03T01:35:17.913Z,1.20
2023-04-03T01:36:17.972Z,1.10
2023-04-03T01:37:18.084Z,1.10
2023-04-03T01:38:17.898Z,1.20
2023-04-03T01:39:17.895Z,1.50
2023-04-03T01:40:17.890Z,1.30
2023-04-03T01:41:17.907Z,1.40
2023-04-03T01:42:17.877Z,1.20
2023-04-03T01:43:17.890Z,1.30
2023-04-03T01:44:17.868Z,1.40
2023-04-03T01:45:17.862Z,1.20
2023-04-03T01:46:17.893Z,1.20
2023-04-03T01:47:17.856Z,1.40
2023-04-03T01:48:17.875Z,1.30
2023-04-03T01:49:17.822Z,1.20
2023-04-03T01:50:17.816Z,1.20
2023-04-03T01:51:17.808Z,1.30
2023-04-03T01:52:17.817Z,1.20
2023-04-03T01:53:17.835Z,1.30
2023-04-03T01:54:17.803Z,1.30
2023-04-03T01:55:17.811Z,1.10
2023-04-03T01:56:17.789Z,1.20
2023-04-03T01:57:17.801Z,1.20
2023-04-03T01:58:17.787Z,1.20
2023-04-03T01:59:17.758Z,1.30
2023-04-03T02:00:17.785Z,1.20
2023-04-03T02:01:17.822Z,1.30
2023-04-03T02:02:17.749Z,1.40
2023-04-03T02:03:17.752Z,1.10
2023-04-03T02:04:17.755Z,1.20
2023-04-03T02:05:17.732Z,1.30
2023-04-03T02:06:17.706Z,1.50
2023-04-03T02:07:17.712Z,1.20
2023-04-03T02:08:17.740Z,1.30
2023-04-03T02:09:17.694Z,1.20
2023-04-03T02:10:17.683Z,1.30
2023-04-03T02:11:17.673Z,1.40
2023-04-03T02:12:17.674Z,1.40
2023-04-03T02:13:17.679Z,1.30
2023-04-03T02:14:17.654Z,1.20
2023-04-03T02:15:17.654Z,1.30
2023-04-03T02:16:17.662Z,1.50
2023-04-03T02:17:17.640Z,1.50
2023-04-03T02:18:17.665Z,1.20
2023-04-03T02:19:17.625Z,1.40
2023-04-03T02:20:17.617Z,1.40
2023-04-03T02:21:17.632Z,1.50
2023-04-03T02:22:17.599Z,1.00
2023-04-03T02:23:17.629Z,1.50
2023-04-03T02:24:17.586Z,1.30
2023-04-03T02:25:17.594Z,1.30
2023-04-03T02:26:17.612Z,1.30
2023-04-03T02:27:17.586Z,1.40
2023-04-03T02:28:17.584Z,1.30
2023-04-03T02:29:17.568Z,1.30
2023-04-03T02:30:17.554Z,1.30
2023-04-03T02:31:17.573Z,1.50
2023-04-03T02:32:17.546Z,1.40
2023-04-03T02:33:17.568Z,1.40
2023-04-03T02:34:17.528Z,1.30
2023-04-03T02:35:17.519Z,1.20
2023-04-03T02:36:17.517Z,1.30
2023-04-03T02:37:17.538Z,1.40
2023-04-03T02:38:17.531Z,1.60
2023-04-03T02:39:17.486Z,1.60
2023-04-03T02:40:17.498Z,1.80
2023-04-03T02:41:17.501Z,1.80
2023-04-03T02:42:17.472Z,1.40
2023-04-03T02:43:17.465Z,1.70
2023-04-03T02:44:17.449Z,1.40
2023-04-03T02:45:17.459Z,1.90
2023-04-03T02:46:17.493Z,1.80
2023-04-03T02:47:17.461Z,1.20
2023-04-03T02:48:17.436Z,1.20
2023-04-03T02:49:17.426Z,1.40
2023-04-03T02:50:17.425Z,1.40
2023-04-03T02:51:17.424Z,1.60
2023-04-03T02:52:17.403Z,1.40
2023-04-03T02:53:17.418Z,1.50
2023-04-03T02:54:17.402Z,1.60
2023-04-03T02:55:17.400Z,1.60
2023-04-03T02:56:17.380Z,1.40
2023-04-03T02:57:17.421Z,1.40
2023-04-03T02:58:17.408Z,2.20
2023-04-03T02:59:17.364Z,1.60
2023-04-03T03:00:17.364Z,1.50
2023-04-03T03:01:17.397Z,1.50
2023-04-03T03:02:17.348Z,1.60
2023-04-03T03:03:17.380Z,1.70
2023-04-03T03:04:17.336Z,1.90
2023-04-03T03:05:17.402Z,1.60
2023-04-03T03:06:17.323Z,1.50
2023-04-03T03:07:17.313Z,1.70
2023-04-03T03:08:17.330Z,1.50
2023-04-03T03:09:17.293Z,1.50
2023-04-03T03:10:17.311Z,1.60
2023-04-03T03:11:17.289Z,1.50
2023-04-03T03:12:17.284Z,1.60
2023-04-03T03:13:17.300Z,2.00
2023-04-03T03:14:17.272Z,1.70
2023-04-03T03:15:17.268Z,1.90
2023-04-03T03:16:17.329Z,1.60
2023-04-03T03:17:17.256Z,1.60
2023-04-03T03:18:17.259Z,1.80
2023-04-03T03:19:17.226Z,1.70
2023-04-03T03:20:17.230Z,1.50
2023-04-03T03:21:17.223Z,1.60
2023-04-03T03:22:17.214Z,1.90
2023-04-03T03:23:17.245Z,1.70
2023-04-03T03:24:17.208Z,1.60
2023-04-03T03:25:17.196Z,1.40
2023-04-03T03:26:17.180Z,1.30
2023-04-03T03:27:17.177Z,2.20
2023-04-03T03:28:17.204Z,1.80
2023-04-03T03:29:17.169Z,1.60
2023-04-03T03:30:17.166Z,1.70
2023-04-03T03:31:17.214Z,1.50
2023-04-03T03:32:17.140Z,1.60
2023-04-03T03:33:17.399Z,1.80
2023-04-03T03:34:17.946Z,1.80
2023-04-03T03:35:17.116Z,1.60
2023-04-03T03:36:17.181Z,1.40
2023-04-03T03:37:18.111Z,1.70
2023-04-03T03:38:17.126Z,1.40
2023-04-03T03:39:17.098Z,1.60
2023-04-03T03:40:17.099Z,1.70
2023-04-03T03:41:17.085Z,1.60
2023-04-03T03:42:17.078Z,1.50
2023-04-03T03:43:17.107Z,1.90
2023-04-03T03:44:17.067Z,1.50
2023-04-03T03:45:17.066Z,1.60
2023-04-03T03:46:17.115Z,1.70
2023-04-03T03:47:17.052Z,1.70
2023-04-03T03:48:17.068Z,2.00
2023-04-03T03:49:17.035Z,2.00
2023-04-03T03:50:17.033Z,1.50
2023-04-03T03:51:17.014Z,1.80
2023-04-03T03:52:17.044Z,1.50
2023-04-03T03:53:17.049Z,1.80
2023-04-03T03:54:17.005Z,1.60
2023-04-03T03:55:17.008Z,1.70
2023-04-03T03:56:16.987Z,1.60
2023-04-03T03:57:17.046Z,1.90
2023-04-03T03:58:17.010Z,1.90
2023-04-03T03:59:16.972Z,1.90
2023-04-03T04:00:16.973Z,1.50
2023-04-03T04:01:16.971Z,1.60
2023-04-03T04:02:17.038Z,1.50
2023-04-03T04:03:17.068Z,1.90
2023-04-03T04:04:17.043Z,1.80
2023-04-03T04:05:16.947Z,1.90
2023-04-03T04:06:16.961Z,1.80
2023-04-03T04:07:16.931Z,1.50
2023-04-03T04:08:16.939Z,1.90
2023-04-03T04:09:16.914Z,1.60
2023-04-03T04:10:16.914Z,1.70
2023-04-03T04:11:16.903Z,1.70
2023-04-03T04:12:16.904Z,2.30
2023-04-03T04:13:16.913Z,1.80
2023-04-03T04:14:16.873Z,1.90
2023-04-03T04:15:16.852Z,2.30
2023-04-03T04:16:17.926Z,1.40
2023-04-03T04:17:16.862Z,2.40
2023-04-03T04:18:16.879Z,1.50
2023-04-03T04:19:16.851Z,1.90
2023-04-03T04:20:16.848Z,1.60
2023-04-03T04:21:16.848Z,2.00
2023-04-03T04:22:16.835Z,2.10
2023-04-03T04:23:16.845Z,1.80
2023-04-03T04:24:16.817Z,2.00
2023-04-03T04:25:16.892Z,1.90
2023-04-03T04:26:16.816Z,1.70
2023-04-03T04:27:16.817Z,2.00
2023-04-03T04:28:16.804Z,1.80
2023-04-03T04:29:16.783Z,2.00
2023-04-03T04:30:16.820Z,1.80
2023-04-03T04:31:16.827Z,1.60
2023-04-03T04:32:16.796Z,1.60
2023-04-03T04:33:16.764Z,1.90
2023-04-03T04:34:16.750Z,1.60
2023-04-03T04:35:17.091Z,2.20
2023-04-03T04:36:17.817Z,1.80
2023-04-03T04:37:16.749Z,1.70
2023-04-03T04:38:16.747Z,1.80
2023-04-03T04:39:16.706Z,1.90
2023-04-03T04:40:16.724Z,1.80
2023-04-03T04:41:16.704Z,1.90
2023-04-03T04:42:17.784Z,1.90
2023-04-03T04:43:17.730Z,1.80
2023-04-03T04:44:16.684Z,2.10
2023-04-03T04:45:16.677Z,3.10
2023-04-03T04:46:16.669Z,32.70
2023-04-03T04:47:16.704Z,23.90
2023-04-03T04:48:16.679Z,5.80
2023-04-03T04:49:16.654Z,2.00
2023-04-03T04:50:16.641Z,1.80
2023-04-03T04:51:17.540Z,1.90
2023-04-03T04:52:16.635Z,2.20
2023-04-03T04:53:16.651Z,2.40
2023-04-03T04:54:16.648Z,2.00
2023-04-03T04:55:16.609Z,1.90
2023-04-03T04:56:17.635Z,1.60
2023-04-03T04:57:16.672Z,2.00
2023-04-03T04:58:16.612Z,2.10
2023-04-03T04:59:16.580Z,1.70
2023-04-03T05:00:16.589Z,2.00
2023-04-03T05:01:16.613Z,2.00
2023-04-03T05:02:16.571Z,2.10
2023-04-03T05:03:16.576Z,2.10
2023-04-03T05:04:16.589Z,2.40
2023-04-03T05:05:16.636Z,2.00
2023-04-03T05:06:16.550Z,1.90
2023-04-03T05:07:16.536Z,2.00
2023-04-03T05:08:16.549Z,2.70
2023-04-03T05:09:16.528Z,2.30
2023-04-03T05:10:16.532Z,2.00
2023-04-03T05:11:16.512Z,2.20
2023-04-03T05:12:16.512Z,2.10
2023-04-03T05:13:16.516Z,1.70
2023-04-03T05:14:16.506Z,2.40
2023-04-03T05:15:16.484Z,2.10
2023-04-03T05:16:16.499Z,1.80
2023-04-03T05:17:16.484Z,2.10
2023-04-03T05:18:16.488Z,2.00
2023-04-03T05:19:16.453Z,2.00
2023-04-03T05:20:16.474Z,2.20
2023-04-03T05:21:16.458Z,1.80
2023-04-03T05:22:16.442Z,2.30
2023-04-03T05:23:16.440Z,2.30
2023-04-03T05:24:16.457Z,2.70
2023-04-03T05:25:16.424Z,2.00
2023-04-03T05:26:16.429Z,2.80
2023-04-03T05:27:16.405Z,2.60
2023-04-03T05:28:16.430Z,2.00
2023-04-03T05:29:16.399Z,1.90
2023-04-03T05:30:16.398Z,2.00
2023-04-03T05:31:16.416Z,1.90
2023-04-03T05:32:16.377Z,1.80
2023-04-03T05:33:16.358Z,1.80
2023-04-03T05:34:16.385Z,1.80
2023-04-03T05:35:16.375Z,2.10
2023-04-03T05:36:16.403Z,2.20
2023-04-03T05:37:16.351Z,2.30
2023-04-03T05:38:16.341Z,1.90
2023-04-03T05:39:16.354Z,2.60
2023-04-03T05:40:17.500Z,1.90
2023-04-03T05:41:16.306Z,2.10
2023-04-03T05:42:16.347Z,2.30
2023-04-03T05:43:16.324Z,1.80
2023-04-03T05:44:16.297Z,2.10
2023-04-03T05:45:16.287Z,1.70
2023-04-03T05:46:16.422Z,1.90
2023-04-03T05:47:16.270Z,1.80
2023-04-03T05:48:16.256Z,1.90
2023-04-03T05:49:16.270Z,1.80
2023-04-03T05:50:16.254Z,2.00
2023-04-03T05:51:16.264Z,2.00
2023-04-03T05:52:16.247Z,1.90
2023-04-03T05:53:16.223Z,1.90
2023-04-03T05:54:16.265Z,1.80
2023-04-03T05:55:16.218Z,1.90
2023-04-03T05:56:16.213Z,1.90
2023-04-03T05:57:16.307Z,2.30
2023-04-03T05:58:16.199Z,1.90
2023-04-03T05:59:16.219Z,2.00
2023-04-03T06:00:16.946Z,2.10
2023-04-03T06:01:16.177Z,2.00
2023-04-03T06:02:16.176Z,2.30
2023-04-03T06:03:16.266Z,2.00
2023-04-03T06:04:16.269Z,2.00
2023-04-03T06:05:16.150Z,2.20
2023-04-03T06:06:16.153Z,1.90
2023-04-03T06:07:16.146Z,1.90
2023-04-03T06:08:16.147Z,1.80
2023-04-03T06:09:16.160Z,1.90
2023-04-03T06:10:16.124Z,1.80
2023-04-03T06:11:16.109Z,2.20
2023-04-03T06:12:16.114Z,2.00
2023-04-03T06:13:16.107Z,1.90
2023-04-03T06:14:17.139Z,1.90
2023-04-03T06:15:16.109Z,2.10
2023-04-03T06:16:16.087Z,2.00
2023-04-03T06:17:16.202Z,1.90
2023-04-03T06:18:16.087Z,1.70
2023-04-03T06:19:16.081Z,2.00
2023-04-03T06:20:18.108Z,2.10
2023-04-03T06:21:16.050Z,2.00
2023-04-03T06:22:16.065Z,1.80
2023-04-03T06:23:16.040Z,1.70
2023-04-03T06:24:16.083Z,1.80
2023-04-03T06:25:16.021Z,1.70
2023-04-03T06:26:16.022Z,1.90
2023-04-03T06:27:16.028Z,2.40
2023-04-03T06:28:16.033Z,1.90
2023-04-03T06:29:16.027Z,1.80
2023-04-03T06:30:15.995Z,1.80
2023-04-03T06:31:16.057Z,1.60
2023-04-03T06:32:15.986Z,1.70
2023-04-03T06:33:15.985Z,2.00
2023-04-03T06:34:15.991Z,2.20
2023-04-03T06:35:15.966Z,1.90
2023-04-03T06:36:16.024Z,1.90
2023-04-03T06:37:15.969Z,1.80
2023-04-03T06:38:15.953Z,1.90
2023-04-03T06:39:15.966Z,1.70
2023-04-03T06:40:15.962Z,2.00
2023-04-03T06:41:15.924Z,1.80
2023-04-03T06:42:15.926Z,2.00
2023-04-03T06:43:15.919Z,3.00
2023-04-03T06:44:15.925Z,2.40
2023-04-03T06:45:15.934Z,1.70
2023-04-03T06:46:15.923Z,2.00
2023-04-03T06:47:15.890Z,1.60
2023-04-03T06:48:15.946Z,1.90
2023-04-03T06:49:15.876Z,1.90
2023-04-03T06:50:15.874Z,1.60
2023-04-03T06:51:15.862Z,1.90
2023-04-03T06:52:15.869Z,2.10
2023-04-03T06:53:15.871Z,1.70
2023-04-03T06:54:15.892Z,1.70
2023-04-03T06:55:15.845Z,1.80
2023-04-03T06:56:15.849Z,1.80
2023-04-03T06:57:15.867Z,1.70
2023-04-03T06:58:15.823Z,2.00
2023-04-03T06:59:15.972Z,1.70
2023-04-03T07:00:15.818Z,1.70
2023-04-03T07:01:15.845Z,1.80
2023-04-03T07:02:15.805Z,1.70
2023-04-03T07:03:15.790Z,1.60
2023-04-03T07:04:16.266Z,2.00
2023-04-03T07:05:15.772Z,2.00
2023-04-03T07:06:15.764Z,2.00
2023-04-03T07:07:15.760Z,2.10
2023-04-03T07:08:15.751Z,2.80
2023-04-03T07:09:15.777Z,4.10
2023-04-03T07:10:15.756Z,3.70
2023-04-03T07:11:15.722Z,3.60
2023-04-03T07:12:15.734Z,2.80
2023-04-03T07:13:15.726Z,11.30
2023-04-03T07:14:15.728Z,2.30
2023-04-03T07:15:15.700Z,14.20
2023-04-03T07:16:15.783Z,4.70
2023-04-03T07:17:16.693Z,5.90
2023-04-03T07:18:15.689Z,13.00
2023-04-03T07:19:15.695Z,12.10
2023-04-03T07:20:15.685Z,26.80
2023-04-03T07:21:15.657Z,4.80
2023-04-03T07:22:15.648Z,2.50
2023-04-03T07:23:15.658Z,2.50
2023-04-03T07:24:16.762Z,2.10
2023-04-03T07:25:15.640Z,15.60
2023-04-03T07:26:15.633Z,2.00
2023-04-03T07:27:15.624Z,2.90
2023-04-03T07:28:15.617Z,16.10
2023-04-03T07:29:15.624Z,1.70
2023-04-03T07:30:15.612Z,17.50
2023-04-03T07:31:15.599Z,39.90
2023-04-03T07:32:15.593Z,34.90
2023-04-03T07:33:15.600Z,10.10
2023-04-03T07:34:15.605Z,8.80
2023-04-03T07:35:15.583Z,4.40
2023-04-03T07:36:15.599Z,4.90
2023-04-03T07:37:15.564Z,2.90
2023-04-03T07:38:15.550Z,2.20
2023-04-03T07:39:15.563Z,17.70
2023-04-03T07:40:15.534Z,5.80
2023-04-03T07:41:15.549Z,31.70
2023-04-03T07:42:15.546Z,13.70
2023-04-03T07:43:15.540Z,13.90
2023-04-03T07:44:15.527Z,7.90
2023-04-03T07:45:15.503Z,4.80
2023-04-03T07:46:15.549Z,31.10
2023-04-03T07:47:15.495Z,23.40
2023-04-03T07:48:15.478Z,12.60
2023-04-03T07:49:15.513Z,10.50
2023-04-03T07:50:15.461Z,45.60
2023-04-03T07:51:15.453Z,22.80
2023-04-03T07:52:15.455Z,11.70
2023-04-03T07:53:15.441Z,11.70
2023-04-03T07:54:15.454Z,32.90
2023-04-03T07:55:15.475Z,2.10
2023-04-03T07:56:15.504Z,2.20
2023-04-03T07:57:15.448Z,35.40
2023-04-03T07:58:15.409Z,36.80
2023-04-03T07:59:15.417Z,25.70
2023-04-03T08:00:15.406Z,2.70
2023-04-03T08:01:15.380Z,7.10
2023-04-03T08:02:15.403Z,2.40
2023-04-03T08:03:15.491Z,18.40
2023-04-03T08:04:15.513Z,13.70
2023-04-03T08:05:15.362Z,2.20
2023-04-03T08:06:16.469Z,2.70
2023-04-03T08:07:16.353Z,1.90
2023-04-03T08:08:15.370Z,3.90
2023-04-03T08:09:15.349Z,12.70
2023-04-03T08:10:15.346Z,22.70
2023-04-03T08:11:15.326Z,14.20
2023-04-03T08:12:15.308Z,3.20
2023-04-03T08:13:15.329Z,19.30
2023-04-03T08:14:15.304Z,7.40
2023-04-03T08:15:15.297Z,4.30
2023-04-03T08:16:15.312Z,2.40
2023-04-03T08:17:15.302Z,1.80
2023-04-03T08:18:15.387Z,1.70
2023-04-03T08:19:22.366Z,2.00
2023-04-03T08:20:17.260Z,1.90
2023-04-03T08:21:15.268Z,2.10
2023-04-03T08:22:15.242Z,1.70
2023-04-03T08:23:15.236Z,1.80
2023-04-03T08:24:15.248Z,1.60
2023-04-03T08:25:15.239Z,1.70
2023-04-03T08:26:15.212Z,1.60
2023-04-03T08:27:15.207Z,2.10
2023-04-03T08:28:15.206Z,1.80
2023-04-03T08:29:15.213Z,1.70
2023-04-03T08:30:15.193Z,1.70
2023-04-03T08:31:15.235Z,1.50
2023-04-03T08:32:15.173Z,1.70
2023-04-03T08:33:15.247Z,1.70
2023-04-03T08:34:15.173Z,1.90
2023-04-03T08:35:15.182Z,2.20
2023-04-03T08:36:15.194Z,2.00
2023-04-03T08:37:15.159Z,1.60
2023-04-03T08:38:15.159Z,1.80
2023-04-03T08:39:15.115Z,1.50
2023-04-03T08:40:15.179Z,1.80
2023-04-03T08:41:15.108Z,2.40
2023-04-03T08:42:15.102Z,1.90
2023-04-03T08:43:15.099Z,3.00
2023-04-03T08:44:15.175Z,1.70
2023-04-03T08:45:15.101Z,1.80
2023-04-03T08:46:15.089Z,1.50
2023-04-03T08:47:15.065Z,3.30
2023-04-03T08:48:15.127Z,1.70
2023-04-03T08:49:15.062Z,1.70
2023-04-03T08:50:15.062Z,1.90
2023-04-03T08:51:15.040Z,2.10
2023-04-03T08:52:15.014Z,1.70
2023-04-03T08:53:15.007Z,1.90
2023-04-03T08:54:15.151Z,1.90
2023-04-03T08:55:15.031Z,1.60
2023-04-03T08:56:15.004Z,1.70
2023-04-03T08:57:15.049Z,1.90
2023-04-03T08:58:14.977Z,1.70
2023-04-03T08:59:14.989Z,1.70
2023-04-03T09:00:15.075Z,1.60
2023-04-03T09:01:14.986Z,1.30
2023-04-03T09:02:14.991Z,1.60
2023-04-03T09:03:15.119Z,1.50
2023-04-03T09:04:15.053Z,1.40
2023-04-03T09:05:15.040Z,1.40
2023-04-03T09:06:14.960Z,1.30
2023-04-03T09:07:14.923Z,1.40
2023-04-03T09:08:14.920Z,1.20
2023-04-03T09:09:14.923Z,1.50
2023-04-03T09:10:14.959Z,1.50
2023-04-03T09:11:14.903Z,1.30
2023-04-03T09:12:14.896Z,1.30
2023-04-03T09:13:14.887Z,1.30
2023-04-03T09:14:14.885Z,1.40
2023-04-03T09:15:15.198Z,1.30
2023-04-03T09:16:14.965Z,1.20
2023-04-03T09:17:14.842Z,1.30
2023-04-03T09:18:14.844Z,1.40
2023-04-03T09:19:14.833Z,1.60
2023-04-03T09:20:14.841Z,1.40
2023-04-03T09:21:14.833Z,1.30
2023-04-03T09:22:14.835Z,1.40
2023-04-03T09:23:14.797Z,1.20
2023-04-03T09:24:14.798Z,1.20
2023-04-03T09:25:14.823Z,1.20
2023-04-03T09:26:14.791Z,1.30
2023-04-03T09:27:14.783Z,1.40
2023-04-03T09:28:14.768Z,1.20
2023-04-03T09:29:14.770Z,1.20
2023-04-03T09:30:14.776Z,1.00
2023-04-03T09:31:14.784Z,1.00
2023-04-03T09:32:14.858Z,0.90
2023-04-03T09:33:14.806Z,1.10
2023-04-03T09:34:14.736Z,1.10
2023-04-03T09:35:20.563Z,1.00
2023-04-03T09:36:16.768Z,0.90
2023-04-03T09:37:14.703Z,0.90
2023-04-03T09:38:14.699Z,1.20
2023-04-03T09:39:14.720Z,1.10
2023-04-03T09:40:14.710Z,1.00
2023-04-03T09:41:14.675Z,1.10
2023-04-03T09:42:14.672Z,1.20
2023-04-03T09:43:14.697Z,1.10
2023-04-03T09:44:14.656Z,1.30
2023-04-03T09:45:14.658Z,1.00
2023-04-03T09:46:14.671Z,0.90
2023-04-03T09:47:14.633Z,1.30
2023-04-03T09:48:16.337Z,1.00
2023-04-03T09:49:15.612Z,0.90
2023-04-03T09:50:14.641Z,1.20
2023-04-03T09:51:14.619Z,0.90
2023-04-03T09:52:14.595Z,1.00
2023-04-03T09:53:14.599Z,1.00
2023-04-03T09:54:14.596Z,1.00
2023-04-03T09:55:14.621Z,1.00
2023-04-03T09:56:14.565Z,1.10
2023-04-03T09:57:14.650Z,1.50
2023-04-03T09:58:14.812Z,1.10
2023-04-03T09:59:14.553Z,1.20
2023-04-03T10:00:14.577Z,1.10
2023-04-03T10:01:14.570Z,1.10
2023-04-03T10:02:14.630Z,1.00
2023-04-03T10:03:14.537Z,1.00
2023-04-03T10:04:14.661Z,0.90
2023-04-03T10:05:14.585Z,0.90
2023-04-03T10:06:14.509Z,1.00
2023-04-03T10:07:14.501Z,1.10
2023-04-03T10:08:14.626Z,1.00
2023-04-03T10:09:14.501Z,0.90
2023-04-03T10:10:14.498Z,1.00
2023-04-03T10:11:14.489Z,1.00
2023-04-03T10:12:14.488Z,0.80
2023-04-03T10:13:20.566Z,0.90
2023-04-03T10:14:16.465Z,0.90
2023-04-03T10:15:14.467Z,1.10
2023-04-03T10:16:14.472Z,0.80
2023-04-03T10:17:14.447Z,0.80
2023-04-03T10:18:23.736Z,1.00
2023-04-03T10:19:16.421Z,0.90
2023-04-03T10:20:14.557Z,0.90
2023-04-03T10:21:26.738Z,0.90
2023-04-03T10:22:16.399Z,1.10
2023-04-03T10:23:14.435Z,1.00
2023-04-03T10:24:14.393Z,0.90
2023-04-03T10:25:14.404Z,1.30
2023-04-03T10:26:14.876Z,0.80
2023-04-03T10:27:15.389Z,0.80
2023-04-03T10:28:14.354Z,1.10
2023-04-03T10:29:14.348Z,1.10
2023-04-03T10:30:14.380Z,1.00
2023-04-03T10:31:14.452Z,0.80
2023-04-03T10:32:14.335Z,0.90
2023-04-03T10:33:14.340Z,0.90
2023-04-03T10:34:14.315Z,0.80
2023-04-03T10:35:14.331Z,0.80
2023-04-03T10:36:14.385Z,0.90
2023-04-03T10:37:14.291Z,0.90
2023-04-03T10:38:14.298Z,0.80
2023-04-03T10:39:14.289Z,0.80
2023-04-03T10:40:14.298Z,0.90
2023-04-03T10:41:15.734Z,0.80
2023-04-03T10:42:17.718Z,0.90
2023-04-03T10:43:15.255Z,0.90
2023-04-03T10:44:14.253Z,1.10
2023-04-03T10:45:14.267Z,1.70
2023-04-03T10:46:14.249Z,1.10
2023-04-03T10:47:14.233Z,1.40
2023-04-03T10:48:14.243Z,1.00
2023-04-03T10:49:15.213Z,0.90
2023-04-03T10:50:14.240Z,1.20
2023-04-03T10:51:14.203Z,0.90
2023-04-03T10:52:14.268Z,0.90
2023-04-03T10:53:14.196Z,0.70
2023-04-03T10:54:14.182Z,0.90
2023-04-03T10:55:14.185Z,0.80
2023-04-03T10:56:14.180Z,0.90
2023-04-03T10:57:14.410Z,0.90
2023-04-03T10:58:15.590Z,1.00
2023-04-03T10:59:14.161Z,0.90
2023-04-03T11:00:14.192Z,0.90
2023-04-03T11:01:14.328Z,0.90
2023-04-03T11:02:14.126Z,1.00
2023-04-03T11:03:14.218Z,1.10
2023-04-03T11:04:14.107Z,0.80
2023-04-03T11:05:14.130Z,0.90
2023-04-03T11:06:14.099Z,1.00
2023-04-03T11:07:14.087Z,1.20
2023-04-03T11:08:14.191Z,2.30
2023-04-03T11:09:14.082Z,1.20
2023-04-03T11:10:14.814Z,1.20
2023-04-03T11:11:15.050Z,1.10
2023-04-03T11:12:14.083Z,1.00
2023-04-03T11:13:14.053Z,1.00
2023-04-03T11:14:14.037Z,1.10
2023-04-03T11:15:14.102Z,1.10
2023-04-03T11:16:14.076Z,2.70
2023-04-03T11:17:14.031Z,5.40
2023-04-03T11:18:14.093Z,1.40
2023-04-03T11:19:14.005Z,1.10
2023-04-03T11:20:14.075Z,0.90
2023-04-03T11:21:14.024Z,0.90
2023-04-03T11:22:14.018Z,1.40
2023-04-03T11:23:13.990Z,1.40
2023-04-03T11:24:13.966Z,1.20
2023-04-03T11:25:13.976Z,1.10
2023-04-03T11:26:13.982Z,1.00
2023-04-03T11:27:13.961Z,0.90
2023-04-03T11:28:13.948Z,1.10
2023-04-03T11:29:17.920Z,0.90
2023-04-03T11:30:15.927Z,1.30
2023-04-03T11:31:14.011Z,0.90
2023-04-03T11:32:13.933Z,0.90
2023-04-03T11:33:13.912Z,1.20
2023-04-03T11:34:13.904Z,1.00
2023-04-03T11:35:13.889Z,0.80
2023-04-03T11:36:24.818Z,1.00
2023-04-03T11:37:15.884Z,1.00
2023-04-03T11:38:13.873Z,0.90
2023-04-03T11:39:13.874Z,0.90
2023-04-03T11:40:13.955Z,0.70
2023-04-03T11:41:13.880Z,1.20
2023-04-03T11:42:13.874Z,10.40
2023-04-03T11:43:13.878Z,4.80
2023-04-03T11:44:13.842Z,0.90
2023-04-03T11:45:13.834Z,0.90
2023-04-03T11:46:13.864Z,0.90
2023-04-03T11:47:13.818Z,0.90
2023-04-03T11:48:23.881Z,0.80
2023-04-03T11:49:15.794Z,0.90
2023-04-03T11:50:13.800Z,0.80
2023-04-03T11:51:13.782Z,0.80
2023-04-03T11:52:13.764Z,0.80
2023-04-03T11:53:13.812Z,0.80
2023-04-03T11:54:13.774Z,0.90
2023-04-03T11:55:13.763Z,0.80
2023-04-03T11:56:13.855Z,0.80
2023-04-03T11:57:13.788Z,0.90
2023-04-03T11:58:13.778Z,1.00
2023-04-03T11:59:13.730Z,0.80
2023-04-03T12:00:13.741Z,0.90
2023-04-03T12:01:13.766Z,0.90
2023-04-03T12:02:13.772Z,0.90
2023-04-03T12:03:13.810Z,0.80
2023-04-03T12:04:13.778Z,0.80
2023-04-03T12:05:13.731Z,0.80
2023-04-03T12:06:13.680Z,0.80
2023-04-03T12:07:13.705Z,0.80
2023-04-03T12:08:13.661Z,0.80
2023-04-03T12:09:13.687Z,1.00
2023-04-03T12:10:18.331Z,1.00
2023-04-03T12:11:15.742Z,0.80
2023-04-03T12:12:13.659Z,1.00
2023-04-03T12:13:13.641Z,0.80
2023-04-03T12:14:13.612Z,0.70
2023-04-03T12:15:13.638Z,0.90
2023-04-03T12:16:13.590Z,0.90
2023-04-03T12:17:13.675Z,1.00
2023-04-03T12:18:13.763Z,0.90
2023-04-03T12:19:13.826Z,0.90
2023-04-03T12:20:13.610Z,0.80
2023-04-03T12:21:14.585Z,1.00
2023-04-03T12:22:13.556Z,1.00
2023-04-03T12:23:13.546Z,1.00
2023-04-03T12:24:13.573Z,1.10
2023-04-03T12:25:13.558Z,1.10
2023-04-03T12:26:13.552Z,2.00
2023-04-03T12:27:13.617Z,3.60
2023-04-03T12:28:13.505Z,1.00
2023-04-03T12:29:13.505Z,0.90
2023-04-03T12:30:13.538Z,0.90
2023-04-03T12:31:13.635Z,0.90
2023-04-03T12:32:13.532Z,1.10
2023-04-03T12:33:14.121Z,0.80
2023-04-03T12:34:14.478Z,0.70
2023-04-03T12:35:13.482Z,1.00
2023-04-03T12:36:13.572Z,1.00
2023-04-03T12:37:13.456Z,1.00
2023-04-03T12:38:13.455Z,1.00
2023-04-03T12:39:13.463Z,0.90
2023-04-03T12:40:13.452Z,2.50
2023-04-03T12:41:13.467Z,0.80
2023-04-03T12:42:13.423Z,0.80
2023-04-03T12:43:13.498Z,1.70
2023-04-03T12:44:14.416Z,1.10
2023-04-03T12:45:13.405Z,1.80
2023-04-03T12:46:13.432Z,1.10
2023-04-03T12:47:13.440Z,1.40
2023-04-03T12:48:13.413Z,5.20
2023-04-03T12:49:13.361Z,1.20
2023-04-03T12:50:13.395Z,1.90
2023-04-03T12:51:13.411Z,2.30
2023-04-03T12:52:13.359Z,1.40
2023-04-03T12:53:13.352Z,1.00
2023-04-03T12:54:13.336Z,1.00
2023-04-03T12:55:13.341Z,1.20
2023-04-03T12:56:13.363Z,1.90
2023-04-03T12:57:13.388Z,1.90
2023-04-03T12:58:13.313Z,1.30
2023-04-03T12:59:13.373Z,2.40
2023-04-03T13:00:13.282Z,0.90
2023-04-03T13:01:13.313Z,0.90
2023-04-03T13:02:13.343Z,1.00
2023-04-03T13:03:13.333Z,1.30
2023-04-03T13:04:13.265Z,2.10
2023-04-03T13:05:13.258Z,1.00
2023-04-03T13:06:13.272Z,1.00
2023-04-03T13:07:13.256Z,1.10
2023-04-03T13:08:13.242Z,1.00
2023-04-03T13:09:13.223Z,0.90
2023-04-03T13:10:13.296Z,1.10
2023-04-03T13:11:13.227Z,1.00
2023-04-03T13:12:13.197Z,0.90
2023-04-03T13:13:13.194Z,1.00
2023-04-03T13:14:13.176Z,1.00
2023-04-03T13:15:13.292Z,1.30
2023-04-03T13:16:13.230Z,1.50
2023-04-03T13:17:13.186Z,2.10